Jacksonville, FL (32246)

10:48 PM EDT on May 24, 2015 (GMT -0400)
Country Side Village | | Change Station
CLOSE
Current Station
Personal Weather Station
Location: Jacksonville, FL
Elevation: 49 ft
Nearby Weather Stations

Elev 49 ft 30.28 °N, 81.54 °W | Updated 7 minutes ago

Partly Cloudy
Partly Cloudy
75.9 °F
Feels Like 75 °F
N
5.4
Wind Variable Wind from SW
Gusts 15.2 mph

Today
High -- | Low -- °F
--% Chance of Precip.
Yesterday
High -- | Low -- °F
Precip. -- in
6:27 AM 8:18 PM
Waxing Crescent, 44% visible
Pressure 30.22 in
Visibility 10.0 miles
Clouds Few 1500 ft
Heat Index 75 °F
Dew Point 74 °F
Humidity 94%
Rainfall 0.00 in
Snow Depth Not available.
UV 0 out of 12
Pollen 4.60 out of 12
Air Quality Not available.
Flu Activity Sporadic
METAR KCRG 250153Z AUTO 09007KT 10SM FEW015 24/21 A3023 RMK AO2 SLP234 T02390211 $

More Conditions Fewer Conditions

Pressure 30.22 in
Visibility 10.0 miles
Clouds Few 1500 ft
Heat Index 75 °F
Dew Point 74 °F
Humidity 94%
Rainfall 0.00 in
Snow Depth Not available.
UV 0 out of 12
Pollen 4.60 out of 12
Air Quality Not available.
Flu Activity Sporadic
METAR KCRG 250153Z AUTO 09007KT 10SM FEW015 24/21 A3023 RMK AO2 SLP234 T02390211 $

More Conditions Fewer Conditions

10-Day Weather Forecast

Almanac

Astronomy

May. 24, 2015 Rise Set
Actual Time
Civil Twilight
Nautical Twilight
Astronomical Twilight
Moon
Length of Visible Light
Length of Day
Tomorrow will be .
, % of the Moon is Illuminated

Today's Extremes

State Highs State Lows

Community

WunderPhotos

Upload Photos

1,823,936 photos uploaded!

WunderBlogs® & News

Nearby

Air Quality

  Air Quality AQ Index Pollutant
Not available.

Snow Depth

Station Depth Elevation

Earthquake Activity

City Distance Mag. Time & Date
Minimum magnitude displayed is 2.5.

Coastal Water Temperatures

Place Temperature

Stations

Nearby Weather Stations

Station Location Temp. Windchill Dew Point Humidity Wind Precip. Elev Updated Type